메인 페이지
METAR-TAF:

METAR-TAF

공항 :

티루바난타푸람, 인도

위도: 08-28N, 경도: 076-57E, 고도: 4m

현재 날씨관측

예보는 38분 전, 08:00시(UTC)에 발표되었습니다.
북서8kt
온도 31°C
습도 71%
기압 1008 hPa
시정: 6000m
고도 1500ft 상공 구름 조금
고도 2000ft 상공 구름 보통

METAR: VOTV 240800Z 32008KT 6000 FEW015 SCT020 31/25 Q1008 NOSIG

시각: 14:08 (08:38 UTC)

예보

예보는 3 시간 38분 전, 05:00시(UTC)에 발표되었습니다.
예보 대상 시간: 24일 06시부터 25일 12시까지 (UTC)
북북서10kt
시정: 6000m
고도 1500ft 상공 구름 보통
고도 2500ft 상공 구름 조금, 타워링 적운.
전환 중
24일 12시부터 24일 13시까지 (UTC)
북북서5kt
시정: 4000m
고도 1200ft 상공 구름 보통
고도 2500ft 상공 구름 조금, 적란운.
고도 8000ft 상공 구름 많음
약한비, 연무
일시적
24일 22시부터 25일 03시까지 (UTC)
여러 방향의 바람 3kt
시정: 2500m
고도 1200ft 상공 구름 보통
고도 2500ft 상공 구름 조금, 적란운.
고도 8000ft 상공 구름 많음
연무, 비
전환 중
25일 03시부터 25일 04시까지 (UTC)
북북서10kt
시정: 5000m
고도 1500ft 상공 구름 조금
고도 2500ft 상공 구름 조금, 타워링 적운.
연무
일시적
25일 07시부터 25일 12시까지 (UTC)
시정: 3000m
고도 1200ft 상공 구름 보통
고도 2500ft 상공 구름 조금, 적란운.
고도 8000ft 상공 흐림
소나기, 비

TAF: VOTV 240500Z 2406/2512 34010KT 6000 SCT015 FEW025TCU BECMG 2412/2413 34005KT 4000 -RA HZ SCT012 FEW025CB BKN080 TEMPO 2422/2503 VRB03KT 2500 HZ RA SCT012 FEW025CB BKN080 BECMG 2503/2504 33010KT 5000 HZ FEW015 FEW025TCU TEMPO 2507/2512 3000 SHRA RA SCT012 FEW025CB OVC080

4,000개 이상의 공항 관측 자료 및 예보 (METAR 및 TAF 보고).

지도상에서 검색 가능한 기상관측소가 노란 점과 빨간 점으로 표시되어 있습니다.

기상관측소 명을 보려면 표시 위로 마우스를 이동하세요.

날씨 관측과 예보를 보려면 클릭하세요.

지도 변경 : 확대하려면 엑스 표시가 있는 녹색 버튼, 축소하려면 빼기 표시가 있는 녹색 버튼, 다음 페이지의 지도를 보려면 녹색 화살표를 클릭하세요.


METAR-TAF: